sensor_id;sensor_type;location;lat;lon;timestamp;pressure;altitude;pressure_sealevel;temperature;humidity
60337;BME280;46978;50.288;28.624;2023-02-28T00:00:29;100215.05;;;-4.07;79.07
60337;BME280;46978;50.288;28.624;2023-02-28T00:01:30;100209.98;;;-4.07;78.52
60337;BME280;46978;50.288;28.624;2023-02-28T00:02:32;100211.62;;;-4.08;78.64
60337;BME280;46978;50.288;28.624;2023-02-28T00:03:34;100209.01;;;-4.09;78.98
60337;BME280;46978;50.288;28.624;2023-02-28T00:04:35;100215.75;;;-4.10;79.10
60337;BME280;46978;50.288;28.624;2023-02-28T00:05:37;100207.28;;;-4.10;79.11
60337;BME280;46978;50.288;28.624;2023-02-28T00:06:39;100218.98;;;-4.12;78.33
60337;BME280;46978;50.288;28.624;2023-02-28T00:07:41;100213.83;;;-4.14;78.78
60337;BME280;46978;50.288;28.624;2023-02-28T00:08:42;100223.10;;;-4.15;78.67
60337;BME280;46978;50.288;28.624;2023-02-28T00:09:45;100220.57;;;-4.15;78.80
60337;BME280;46978;50.288;28.624;2023-02-28T00:10:47;100225.64;;;-4.15;78.79
60337;BME280;46978;50.288;28.624;2023-02-28T00:11:48;100220.48;;;-4.16;78.78
60337;BME280;46978;50.288;28.624;2023-02-28T00:12:51;100228.17;;;-4.15;78.69
60337;BME280;46978;50.288;28.624;2023-02-28T00:13:53;100218.12;;;-4.13;78.71
60337;BME280;46978;50.288;28.624;2023-02-28T00:14:55;100224.86;;;-4.13;78.87
60337;BME280;46978;50.288;28.624;2023-02-28T00:16:02;100224.95;;;-4.12;79.00
60337;BME280;46978;50.288;28.624;2023-02-28T00:17:04;100222.41;;;-4.12;79.04
60337;BME280;46978;50.288;28.624;2023-02-28T00:18:05;100228.34;;;-4.11;78.82
60337;BME280;46978;50.288;28.624;2023-02-28T00:19:07;100230.02;;;-4.12;78.45
60337;BME280;46978;50.288;28.624;2023-02-28T00:20:10;100230.79;;;-4.13;78.08
60337;BME280;46978;50.288;28.624;2023-02-28T00:21:12;100231.66;;;-4.12;78.07
60337;BME280;46978;50.288;28.624;2023-02-28T00:22:21;100228.09;;;-4.16;77.36
60337;BME280;46978;50.288;28.624;2023-02-28T00:23:20;100231.40;;;-4.17;77.89
60337;BME280;46978;50.288;28.624;2023-02-28T00:24:21;100238.14;;;-4.18;77.47
60337;BME280;46978;50.288;28.624;2023-02-28T00:25:25;100227.84;;;-4.21;77.65
60337;BME280;46978;50.288;28.624;2023-02-28T00:26:27;100230.28;;;-4.22;78.08
60337;BME280;46978;50.288;28.624;2023-02-28T00:27:28;100227.67;;;-4.24;78.20
60337;BME280;46978;50.288;28.624;2023-02-28T00:28:30;100232.73;;;-4.24;78.13
60337;BME280;46978;50.288;28.624;2023-02-28T00:29:31;100238.58;;;-4.25;78.17
60337;BME280;46978;50.288;28.624;2023-02-28T00:30:33;100236.94;;;-4.24;78.39
60337;BME280;46978;50.288;28.624;2023-02-28T00:31:35;100236.86;;;-4.26;78.51
60337;BME280;46978;50.288;28.624;2023-02-28T00:32:37;100233.43;;;-4.26;78.51
60337;BME280;46978;50.288;28.624;2023-02-28T00:33:39;100238.41;;;-4.28;77.98
60337;BME280;46978;50.288;28.624;2023-02-28T00:34:41;100234.06;;;-4.30;77.87
60337;BME280;46978;50.288;28.624;2023-02-28T00:35:43;100226.30;;;-4.34;78.16
60337;BME280;46978;50.288;28.624;2023-02-28T00:36:45;100233.17;;;-4.31;78.18
60337;BME280;46978;50.288;28.624;2023-02-28T00:37:47;100225.58;;;-4.31;77.94
60337;BME280;46978;50.288;28.624;2023-02-28T00:38:49;100231.45;;;-4.32;77.45
60337;BME280;46978;50.288;28.624;2023-02-28T00:39:51;100222.09;;;-4.33;77.49
60337;BME280;46978;50.288;28.624;2023-02-28T00:40:53;100224.45;;;-4.36;77.88
60337;BME280;46978;50.288;28.624;2023-02-28T00:41:55;100229.52;;;-4.36;78.24
60337;BME280;46978;50.288;28.624;2023-02-28T00:42:56;100222.70;;;-4.37;77.90
60337;BME280;46978;50.288;28.624;2023-02-28T00:43:58;100227.77;;;-4.37;77.73
60337;BME280;46978;50.288;28.624;2023-02-28T00:44:59;100224.20;;;-4.41;77.65
60337;BME280;46978;50.288;28.624;2023-02-28T00:46:02;100227.52;;;-4.42;77.76
60337;BME280;46978;50.288;28.624;2023-02-28T00:47:04;100218.27;;;-4.41;77.95
60337;BME280;46978;50.288;28.624;2023-02-28T00:48:06;100221.58;;;-4.42;78.01
60337;BME280;46978;50.288;28.624;2023-02-28T00:49:07;100224.03;;;-4.44;78.28
60337;BME280;46978;50.288;28.624;2023-02-28T00:50:11;100228.23;;;-4.44;78.29
60337;BME280;46978;50.288;28.624;2023-02-28T00:51:12;100227.34;;;-4.45;78.43
60337;BME280;46978;50.288;28.624;2023-02-28T00:52:14;100220.47;;;-4.47;78.60
60337;BME280;46978;50.288;28.624;2023-02-28T00:53:16;100223.86;;;-4.47;78.86
60337;BME280;46978;50.288;28.624;2023-02-28T00:54:18;100228.84;;;-4.48;78.93
60337;BME280;46978;50.288;28.624;2023-02-28T00:55:19;100224.55;;;-4.50;78.62
60337;BME280;46978;50.288;28.624;2023-02-28T00:56:21;100221.07;;;-4.52;78.66
60337;BME280;46978;50.288;28.624;2023-02-28T00:57:23;100227.72;;;-4.54;78.67
60337;BME280;46978;50.288;28.624;2023-02-28T00:58:24;100220.03;;;-4.55;78.97
60337;BME280;46978;50.288;28.624;2023-02-28T00:59:26;100223.43;;;-4.55;79.39
60337;BME280;46978;50.288;28.624;2023-02-28T01:00:28;100216.61;;;-4.56;79.60
60337;BME280;46978;50.288;28.624;2023-02-28T01:01:30;100218.97;;;-4.59;79.26
60337;BME280;46978;50.288;28.624;2023-02-28T01:02:31;100218.02;;;-4.61;79.01
60337;BME280;46978;50.288;28.624;2023-02-28T01:03:33;100224.75;;;-4.61;79.37
60337;BME280;46978;50.288;28.624;2023-02-28T01:04:35;100224.67;;;-4.63;79.47
60337;BME280;46978;50.288;28.624;2023-02-28T01:05:36;100221.24;;;-4.63;79.62
60337;BME280;46978;50.288;28.624;2023-02-28T01:06:38;100220.37;;;-4.64;80.06
60337;BME280;46978;50.288;28.624;2023-02-28T01:07:40;100223.69;;;-4.65;80.35
60337;BME280;46978;50.288;28.624;2023-02-28T01:08:42;100215.14;;;-4.67;79.94
60337;BME280;46978;50.288;28.624;2023-02-28T01:09:43;100220.98;;;-4.68;80.08
60337;BME280;46978;50.288;28.624;2023-02-28T01:10:46;100217.50;;;-4.70;79.64
60337;BME280;46978;50.288;28.624;2023-02-28T01:11:47;100219.08;;;-4.72;79.82
60337;BME280;46978;50.288;28.624;2023-02-28T01:12:49;100226.68;;;-4.72;79.96
60337;BME280;46978;50.288;28.624;2023-02-28T01:13:51;100222.30;;;-4.75;79.99
60337;BME280;46978;50.288;28.624;2023-02-28T01:14:53;100223.97;;;-4.75;80.15
60337;BME280;46978;50.288;28.624;2023-02-28T01:15:55;100219.69;;;-4.76;80.37
60337;BME280;46978;50.288;28.624;2023-02-28T01:16:57;100217.16;;;-4.76;80.73
60337;BME280;46978;50.288;28.624;2023-02-28T01:17:59;100222.12;;;-4.78;81.06
60337;BME280;46978;50.288;28.624;2023-02-28T01:19:01;100222.04;;;-4.79;81.12
60337;BME280;46978;50.288;28.624;2023-02-28T01:20:03;100220.28;;;-4.80;81.03
60337;BME280;46978;50.288;28.624;2023-02-28T01:21:07;100216.03;;;-4.81;80.71
60337;BME280;46978;50.288;28.624;2023-02-28T01:22:09;100218.56;;;-4.81;80.62
60337;BME280;46978;50.288;28.624;2023-02-28T01:23:10;100226.92;;;-4.82;80.90
60337;BME280;46978;50.288;28.624;2023-02-28T01:24:12;100230.14;;;-4.85;80.76
60337;BME280;46978;50.288;28.624;2023-02-28T01:25:14;100229.38;;;-4.84;80.61
60337;BME280;46978;50.288;28.624;2023-02-28T01:26:20;100222.47;;;-4.87;80.24
60337;BME280;46978;50.288;28.624;2023-02-28T01:27:23;100228.33;;;-4.88;80.17
60337;BME280;46978;50.288;28.624;2023-02-28T01:28:24;100228.25;;;-4.89;80.15
60337;BME280;46978;50.288;28.624;2023-02-28T01:29:26;100224.82;;;-4.90;80.42
60337;BME280;46978;50.288;28.624;2023-02-28T01:30:28;100222.20;;;-4.91;80.81
60337;BME280;46978;50.288;28.624;2023-02-28T01:31:30;100230.60;;;-4.92;80.76
60337;BME280;46978;50.288;28.624;2023-02-28T01:32:31;100228.75;;;-4.95;80.41
60337;BME280;46978;50.288;28.624;2023-02-28T01:33:33;100220.21;;;-4.97;80.50
60337;BME280;46978;50.288;28.624;2023-02-28T01:34:35;100224.47;;;-4.96;80.70
60337;BME280;46978;50.288;28.624;2023-02-28T01:35:37;100228.58;;;-4.98;80.77
60337;BME280;46978;50.288;28.624;2023-02-28T01:36:39;100231.88;;;-4.99;80.70
60337;BME280;46978;50.288;28.624;2023-02-28T01:37:40;100220.03;;;-5.00;81.19
60337;BME280;46978;50.288;28.624;2023-02-28T01:38:42;100227.63;;;-5.00;81.56
60337;BME280;46978;50.288;28.624;2023-02-28T01:39:44;100225.87;;;-5.01;81.25
60337;BME280;46978;50.288;28.624;2023-02-28T01:40:46;100229.17;;;-5.02;81.36
60337;BME280;46978;50.288;28.624;2023-02-28T01:41:47;100229.98;;;-5.03;81.04
60337;BME280;46978;50.288;28.624;2023-02-28T01:42:49;100226.55;;;-5.04;80.87
60337;BME280;46978;50.288;28.624;2023-02-28T01:44:01;100224.73;;;-5.06;81.03
60337;BME280;46978;50.288;28.624;2023-02-28T01:45:27;100224.65;;;-5.08;80.99
60337;BME280;46978;50.288;28.624;2023-02-28T01:46:21;100233.10;;;-5.07;81.08
60337;BME280;46978;50.288;28.624;2023-02-28T01:47:23;100234.69;;;-5.09;81.12
60337;BME280;46978;50.288;28.624;2023-02-28T01:48:35;100233.78;;;-5.10;81.32
60337;BME280;46978;50.288;28.624;2023-02-28T01:49:38;100232.06;;;-5.11;81.40
60337;BME280;46978;50.288;28.624;2023-02-28T01:50:43;100233.61;;;-5.13;81.46
60337;BME280;46978;50.288;28.624;2023-02-28T01:51:51;100232.75;;;-5.13;81.69
60337;BME280;46978;50.288;28.624;2023-02-28T01:52:56;100232.56;;;-5.16;81.83
60337;BME280;46978;50.288;28.624;2023-02-28T01:54:02;100238.48;;;-5.16;82.44
60337;BME280;46978;50.288;28.624;2023-02-28T01:55:05;100225.75;;;-5.17;82.39
60337;BME280;46978;50.288;28.624;2023-02-28T01:56:09;100235.87;;;-5.17;82.26
60337;BME280;46978;50.288;28.624;2023-02-28T01:57:14;100233.25;;;-5.19;82.41
60337;BME280;46978;50.288;28.624;2023-02-28T01:58:17;100234.83;;;-5.21;82.32
60337;BME280;46978;50.288;28.624;2023-02-28T01:59:35;100231.34;;;-5.23;82.41
60337;BME280;46978;50.288;28.624;2023-02-28T02:00:29;100227.91;;;-5.24;82.49
60337;BME280;46978;50.288;28.624;2023-02-28T02:01:31;100233.78;;;-5.25;82.70
60337;BME280;46978;50.288;28.624;2023-02-28T02:02:33;100229.50;;;-5.26;82.56
60337;BME280;46978;50.288;28.624;2023-02-28T02:03:35;100240.42;;;-5.27;82.72
60337;BME280;46978;50.288;28.624;2023-02-28T02:04:40;100238.66;;;-5.28;82.93
60337;BME280;46978;50.288;28.624;2023-02-28T02:05:42;100230.20;;;-5.28;82.96
60337;BME280;46978;50.288;28.624;2023-02-28T02:06:46;100240.23;;;-5.30;83.04
60337;BME280;46978;50.288;28.624;2023-02-28T02:07:52;100234.19;;;-5.32;83.07
60337;BME280;46978;50.288;28.624;2023-02-28T02:08:54;100239.16;;;-5.33;83.02
60337;BME280;46978;50.288;28.624;2023-02-28T02:10:02;100240.83;;;-5.34;83.15
60337;BME280;46978;50.288;28.624;2023-02-28T02:11:07;100240.73;;;-5.35;83.16
60337;BME280;46978;50.288;28.624;2023-02-28T02:12:21;100244.03;;;-5.36;83.16
60337;BME280;46978;50.288;28.624;2023-02-28T02:14:15;100238.11;;;-5.37;83.66
60337;BME280;46978;50.288;28.624;2023-02-28T02:14:55;100241.50;;;-5.36;83.80
60337;BME280;46978;50.288;28.624;2023-02-28T02:16:19;100232.02;;;-5.41;83.84
60337;BME280;46978;50.288;28.624;2023-02-28T02:17:28;100240.64;;;-5.37;84.18
60337;BME280;46978;50.288;28.624;2023-02-28T02:18:37;100245.61;;;-5.38;84.39
60337;BME280;46978;50.288;28.624;2023-02-28T02:19:51;100236.17;;;-5.41;84.36
60337;BME280;46978;50.288;28.624;2023-02-28T02:25:22;100245.34;;;-5.43;85.37
60337;BME280;46978;50.288;28.624;2023-02-28T02:28:09;100254.41;;;-5.47;85.25
60337;BME280;46978;50.288;28.624;2023-02-28T02:30:42;100252.55;;;-5.49;85.37
60337;BME280;46978;50.288;28.624;2023-02-28T02:31:48;100259.28;;;-5.50;85.36
60337;BME280;46978;50.288;28.624;2023-02-28T02:33:18;100254.13;;;-5.51;85.22
60337;BME280;46978;50.288;28.624;2023-02-28T02:36:45;100266.59;;;-5.54;85.84
60337;BME280;46978;50.288;28.624;2023-02-28T02:39:14;100267.27;;;-5.57;85.77
60337;BME280;46978;50.288;28.624;2023-02-28T02:40:22;100268.92;;;-5.57;86.00
60337;BME280;46978;50.288;28.624;2023-02-28T02:41:34;100272.23;;;-5.59;85.87
60337;BME280;46978;50.288;28.624;2023-02-28T02:42:44;100272.03;;;-5.62;85.81
60337;BME280;46978;50.288;28.624;2023-02-28T02:44:01;100268.55;;;-5.64;85.81
60337;BME280;46978;50.288;28.624;2023-02-28T02:45:01;100278.67;;;-5.64;85.83
60337;BME280;46978;50.288;28.624;2023-02-28T02:46:08;100274.28;;;-5.66;85.79
60337;BME280;46978;50.288;28.624;2023-02-28T02:47:17;100272.52;;;-5.67;86.33
60337;BME280;46978;50.288;28.624;2023-02-28T02:48:24;100275.95;;;-5.67;86.38
60337;BME280;46978;50.288;28.624;2023-02-28T02:49:34;100272.52;;;-5.67;86.32
60337;BME280;46978;50.288;28.624;2023-02-28T02:50:34;100280.11;;;-5.67;86.53
60337;BME280;46978;50.288;28.624;2023-02-28T02:51:38;100279.25;;;-5.68;86.41
60337;BME280;46978;50.288;28.624;2023-02-28T02:52:45;100274.95;;;-5.69;86.41
60337;BME280;46978;50.288;28.624;2023-02-28T02:54:00;100282.45;;;-5.70;86.38
60337;BME280;46978;50.288;28.624;2023-02-28T02:55:02;100278.09;;;-5.73;86.31
60337;BME280;46978;50.288;28.624;2023-02-28T02:56:06;100275.48;;;-5.74;86.23
60337;BME280;46978;50.288;28.624;2023-02-28T02:57:21;100282.16;;;-5.75;86.32
60337;BME280;46978;50.288;28.624;2023-02-28T02:58:26;100281.20;;;-5.77;86.29
60337;BME280;46978;50.288;28.624;2023-02-28T02:59:30;100281.98;;;-5.78;86.14
60337;BME280;46978;50.288;28.624;2023-02-28T03:00:37;100275.96;;;-5.80;86.52
60337;BME280;46978;50.288;28.624;2023-02-28T03:01:41;100280.16;;;-5.81;86.71
60337;BME280;46978;50.288;28.624;2023-02-28T03:02:44;100275.77;;;-5.83;86.67
60337;BME280;46978;50.288;28.624;2023-02-28T03:03:47;100275.00;;;-5.82;87.06
60337;BME280;46978;50.288;28.624;2023-02-28T03:04:52;100285.88;;;-5.83;87.21
60337;BME280;46978;50.288;28.624;2023-02-28T03:05:55;100288.31;;;-5.85;87.31
60337;BME280;46978;50.288;28.624;2023-02-28T03:06:58;100281.50;;;-5.86;86.95
60337;BME280;46978;50.288;28.624;2023-02-28T03:08:04;100288.98;;;-5.87;86.76
60337;BME280;46978;50.288;28.624;2023-02-28T03:09:06;100292.22;;;-5.90;86.71
60337;BME280;46978;50.288;28.624;2023-02-28T03:10:31;100294.55;;;-5.93;86.61
60337;BME280;46978;50.288;28.624;2023-02-28T03:11:35;100301.14;;;-5.95;86.68
60337;BME280;46978;50.288;28.624;2023-02-28T03:12:47;100300.28;;;-5.96;86.88
60337;BME280;46978;50.288;28.624;2023-02-28T03:14:00;100298.55;;;-5.97;87.06
60337;BME280;46978;50.288;28.624;2023-02-28T03:15:15;100301.78;;;-5.99;87.07
60337;BME280;46978;50.288;28.624;2023-02-28T03:16:28;100302.55;;;-6.00;87.06
60337;BME280;46978;50.288;28.624;2023-02-28T03:20:52;100314.80;;;-6.06;87.24
60337;BME280;46978;50.288;28.624;2023-02-28T03:23:23;100316.16;;;-6.11;87.10
60337;BME280;46978;50.288;28.624;2023-02-28T03:25:49;100322.66;;;-6.15;87.67
60337;BME280;46978;50.288;28.624;2023-02-28T03:26:52;100321.69;;;-6.17;87.36
60337;BME280;46978;50.288;28.624;2023-02-28T03:29:32;100312.06;;;-6.23;87.90
60337;BME280;46978;50.288;28.624;2023-02-28T03:32:02;100321.86;;;-6.27;88.05
60337;BME280;46978;50.288;28.624;2023-02-28T03:33:09;100314.19;;;-6.29;88.24
60337;BME280;46978;50.288;28.624;2023-02-28T03:34:24;100319.14;;;-6.31;88.24
60337;BME280;46978;50.288;28.624;2023-02-28T03:35:29;100319.94;;;-6.32;88.61
60337;BME280;46978;50.288;28.624;2023-02-28T03:36:34;100316.52;;;-6.32;88.77
60337;BME280;46978;50.288;28.624;2023-02-28T03:37:38;100324.89;;;-6.33;88.75
60337;BME280;46978;50.288;28.624;2023-02-28T03:38:50;100322.27;;;-6.35;88.96
60337;BME280;46978;50.288;28.624;2023-02-28T03:40:01;100320.50;;;-6.36;88.84
60337;BME280;46978;50.288;28.624;2023-02-28T03:41:19;100319.54;;;-6.38;88.99
60337;BME280;46978;50.288;28.624;2023-02-28T03:42:23;100317.78;;;-6.39;89.36
60337;BME280;46978;50.288;28.624;2023-02-28T03:43:31;100320.30;;;-6.39;89.85
60337;BME280;46978;50.288;28.624;2023-02-28T03:44:41;100316.91;;;-6.39;90.27
60337;BME280;46978;50.288;28.624;2023-02-28T03:45:43;100323.59;;;-6.40;90.31
60337;BME280;46978;50.288;28.624;2023-02-28T03:46:51;100327.02;;;-6.39;90.96
60337;BME280;46978;50.288;28.624;2023-02-28T03:47:55;100323.70;;;-6.38;91.16
60337;BME280;46978;50.288;28.624;2023-02-28T03:49:04;100318.45;;;-6.41;90.40
60337;BME280;46978;50.288;28.624;2023-02-28T03:50:13;100318.25;;;-6.44;90.07
60337;BME280;46978;50.288;28.624;2023-02-28T03:51:18;100317.28;;;-6.46;90.45
60337;BME280;46978;50.288;28.624;2023-02-28T03:52:22;100317.18;;;-6.48;90.67
60337;BME280;46978;50.288;28.624;2023-02-28T03:53:28;100313.70;;;-6.50;90.40
60337;BME280;46978;50.288;28.624;2023-02-28T03:54:45;100317.75;;;-6.52;90.24
60337;BME280;46978;50.288;28.624;2023-02-28T03:55:50;100320.97;;;-6.55;90.10
60337;BME280;46978;50.288;28.624;2023-02-28T03:58:17;100319.20;;;-6.56;90.94
60337;BME280;46978;50.288;28.624;2023-02-28T03:59:37;100314.85;;;-6.58;91.09
60337;BME280;46978;50.288;28.624;2023-02-28T04:00:38;100314.75;;;-6.60;90.89
60337;BME280;46978;50.288;28.624;2023-02-28T04:01:43;100312.23;;;-6.60;91.28
60337;BME280;46978;50.288;28.624;2023-02-28T04:02:45;100314.66;;;-6.61;91.23
60337;BME280;46978;50.288;28.624;2023-02-28T04:03:47;100309.50;;;-6.63;91.64
60337;BME280;46978;50.288;28.624;2023-02-28T04:04:50;100308.50;;;-6.65;92.05
60337;BME280;46978;50.288;28.624;2023-02-28T04:05:53;100305.98;;;-6.65;92.25
60337;BME280;46978;50.288;28.624;2023-02-28T04:07:09;100313.45;;;-6.67;92.27
60337;BME280;46978;50.288;28.624;2023-02-28T04:08:09;100312.59;;;-6.67;92.86
60337;BME280;46978;50.288;28.624;2023-02-28T04:09:13;100309.20;;;-6.68;92.99
60337;BME280;46978;50.288;28.624;2023-02-28T04:10:16;100307.44;;;-6.69;92.93
60337;BME280;46978;50.288;28.624;2023-02-28T04:11:22;100309.00;;;-6.71;92.89
60337;BME280;46978;50.288;28.624;2023-02-28T04:12:23;100305.47;;;-6.73;92.84
60337;BME280;46978;50.288;28.624;2023-02-28T04:13:25;100308.89;;;-6.72;93.45
60337;BME280;46978;50.288;28.624;2023-02-28T04:14:27;100305.37;;;-6.74;93.06
60337;BME280;46978;50.288;28.624;2023-02-28T04:15:28;100312.84;;;-6.76;93.24
60337;BME280;46978;50.288;28.624;2023-02-28T04:16:31;100307.80;;;-6.76;93.70
60337;BME280;46978;50.288;28.624;2023-02-28T04:17:33;100313.74;;;-6.75;93.65
60337;BME280;46978;50.288;28.624;2023-02-28T04:18:34;100313.53;;;-6.78;93.40
60337;BME280;46978;50.288;28.624;2023-02-28T04:19:36;100309.15;;;-6.81;93.31
60337;BME280;46978;50.288;28.624;2023-02-28T04:20:38;100306.53;;;-6.82;93.22
60337;BME280;46978;50.288;28.624;2023-02-28T04:21:45;100309.81;;;-6.83;93.06
60337;BME280;46978;50.288;28.624;2023-02-28T04:22:47;100309.71;;;-6.85;93.09
60337;BME280;46978;50.288;28.624;2023-02-28T04:23:48;100311.27;;;-6.87;93.21
60337;BME280;46978;50.288;28.624;2023-02-28T04:24:50;100311.27;;;-6.87;93.33
60337;BME280;46978;50.288;28.624;2023-02-28T04:25:54;100316.22;;;-6.89;93.11
60337;BME280;46978;50.288;28.624;2023-02-28T04:26:57;100312.72;;;-6.91;93.19
60337;BME280;46978;50.288;28.624;2023-02-28T04:27:59;100320.95;;;-6.93;93.29
60337;BME280;46978;50.288;28.624;2023-02-28T04:29:02;100312.41;;;-6.95;93.24
60337;BME280;46978;50.288;28.624;2023-02-28T04:30:05;100314.14;;;-6.94;94.02
60337;BME280;46978;50.288;28.624;2023-02-28T04:31:07;100314.14;;;-6.94;94.23
60337;BME280;46978;50.288;28.624;2023-02-28T04:32:08;100313.28;;;-6.95;94.29
60337;BME280;46978;50.288;28.624;2023-02-28T04:33:10;100315.80;;;-6.95;94.33
60337;BME280;46978;50.288;28.624;2023-02-28T04:34:11;100313.08;;;-6.98;94.21
60337;BME280;46978;50.288;28.624;2023-02-28T04:35:13;100317.36;;;-6.97;94.24
60337;BME280;46978;50.288;28.624;2023-02-28T04:36:15;100317.16;;;-7.00;94.22
60337;BME280;46978;50.288;28.624;2023-02-28T04:37:17;100321.30;;;-7.00;94.07
60337;BME280;46978;50.288;28.624;2023-02-28T04:38:18;100318.57;;;-7.04;93.93
60337;BME280;46978;50.288;28.624;2023-02-28T04:39:25;100321.09;;;-7.04;94.34
60337;BME280;46978;50.288;28.624;2023-02-28T04:40:24;100324.41;;;-7.05;94.18
60337;BME280;46978;50.288;28.624;2023-02-28T04:41:25;100325.93;;;-7.07;93.63
60337;BME280;46978;50.288;28.624;2023-02-28T04:42:27;100325.93;;;-7.07;93.63
60337;BME280;46978;50.288;28.624;2023-02-28T04:43:30;100330.77;;;-7.10;93.48
60337;BME280;46978;50.288;28.624;2023-02-28T04:44:31;100325.63;;;-7.11;93.16
60337;BME280;46978;50.288;28.624;2023-02-28T04:45:33;100330.45;;;-7.14;93.02
60337;BME280;46978;50.288;28.624;2023-02-28T04:46:36;100335.39;;;-7.16;93.04
60337;BME280;46978;50.288;28.624;2023-02-28T04:47:38;100326.10;;;-7.17;93.00
60337;BME280;46978;50.288;28.624;2023-02-28T04:48:40;100334.43;;;-7.18;93.19
60337;BME280;46978;50.288;28.624;2023-02-28T04:49:41;100336.95;;;-7.18;93.26
60337;BME280;46978;50.288;28.624;2023-02-28T04:50:43;100332.77;;;-7.17;93.48
60337;BME280;46978;50.288;28.624;2023-02-28T04:51:44;100342.96;;;-7.16;93.86
60337;BME280;46978;50.288;28.624;2023-02-28T04:52:46;100336.19;;;-7.17;93.69
60337;BME280;46978;50.288;28.624;2023-02-28T04:53:48;100344.52;;;-7.18;93.77
60337;BME280;46978;50.288;28.624;2023-02-28T04:54:50;100342.86;;;-7.17;93.82
60337;BME280;46978;50.288;28.624;2023-02-28T04:55:51;100340.34;;;-7.17;93.66
60337;BME280;46978;50.288;28.624;2023-02-28T04:56:53;100336.95;;;-7.18;93.82
60337;BME280;46978;50.288;28.624;2023-02-28T04:57:54;100342.75;;;-7.19;93.69
60337;BME280;46978;50.288;28.624;2023-02-28T04:58:56;100335.19;;;-7.19;93.77
60337;BME280;46978;50.288;28.624;2023-02-28T04:59:57;100332.67;;;-7.19;93.93
60337;BME280;46978;50.288;28.624;2023-02-28T05:01:04;100330.14;;;-7.19;93.98
60337;BME280;46978;50.288;28.624;2023-02-28T05:02:06;100333.56;;;-7.18;94.02
60337;BME280;46978;50.288;28.624;2023-02-28T05:03:08;100332.77;;;-7.17;93.69
60337;BME280;46978;50.288;28.624;2023-02-28T05:04:09;100332.77;;;-7.17;93.69
60337;BME280;46978;50.288;28.624;2023-02-28T05:05:11;100348.80;;;-7.17;93.92
60337;BME280;46978;50.288;28.624;2023-02-28T05:06:14;100340.34;;;-7.17;93.96
60337;BME280;46978;50.288;28.624;2023-02-28T05:07:16;100344.63;;;-7.16;93.89
60337;BME280;46978;50.288;28.624;2023-02-28T05:08:17;100337.05;;;-7.16;93.96
60337;BME280;46978;50.288;28.624;2023-02-28T05:09:19;100345.48;;;-7.16;93.87
60337;BME280;46978;50.288;28.624;2023-02-28T05:10:25;100352.95;;;-7.17;93.69
60337;BME280;46978;50.288;28.624;2023-02-28T05:11:27;100345.38;;;-7.17;93.66
60337;BME280;46978;50.288;28.624;2023-02-28T05:12:29;100347.91;;;-7.17;93.56
60337;BME280;46978;50.288;28.624;2023-02-28T05:13:30;100343.76;;;-7.17;93.92
60337;BME280;46978;50.288;28.624;2023-02-28T05:14:32;100343.76;;;-7.17;93.92
60337;BME280;46978;50.288;28.624;2023-02-28T05:15:34;100352.30;;;-7.15;93.87
60337;BME280;46978;50.288;28.624;2023-02-28T05:16:35;100351.42;;;-7.15;93.76
60337;BME280;46978;50.288;28.624;2023-02-28T05:17:37;100348.11;;;-7.14;93.90
60337;BME280;46978;50.288;28.624;2023-02-28T05:18:39;100345.59;;;-7.14;94.05
60337;BME280;46978;50.288;28.624;2023-02-28T05:19:40;100343.17;;;-7.13;94.16
60337;BME280;46978;50.288;28.624;2023-02-28T05:20:42;100347.45;;;-7.12;94.25
60337;BME280;46978;50.288;28.624;2023-02-28T05:21:50;100347.56;;;-7.10;94.38
60337;BME280;46978;50.288;28.624;2023-02-28T05:22:52;100354.37;;;-7.09;94.39
60337;BME280;46978;50.288;28.624;2023-02-28T05:23:54;100349.53;;;-7.06;94.36
60337;BME280;46978;50.288;28.624;2023-02-28T05:24:55;100348.84;;;-7.04;94.38
60337;BME280;46978;50.288;28.624;2023-02-28T05:25:57;100346.63;;;-6.99;94.53
60337;BME280;46978;50.288;28.624;2023-02-28T05:26:59;100352.78;;;-6.95;94.61
60337;BME280;46978;50.288;28.624;2023-02-28T05:28:01;100349.67;;;-6.91;94.94
60337;BME280;46978;50.288;28.624;2023-02-28T05:29:02;100350.19;;;-6.83;95.11
60337;BME280;46978;50.288;28.624;2023-02-28T05:30:05;100351.30;;;-6.80;95.16
60337;BME280;46978;50.288;28.624;2023-02-28T05:31:13;100342.37;;;-6.75;95.22
60337;BME280;46978;50.288;28.624;2023-02-28T05:32:13;100356.16;;;-6.70;95.27
60337;BME280;46978;50.288;28.624;2023-02-28T05:33:15;100354.84;;;-6.64;95.01
60337;BME280;46978;50.288;28.624;2023-02-28T05:34:17;100355.14;;;-6.60;94.83
60337;BME280;46978;50.288;28.624;2023-02-28T05:35:19;100354.55;;;-6.56;94.87
60337;BME280;46978;50.288;28.624;2023-02-28T05:36:20;100359.14;;;-6.50;94.89
60337;BME280;46978;50.288;28.624;2023-02-28T05:37:22;100363.70;;;-6.44;94.89
60337;BME280;46978;50.288;28.624;2023-02-28T05:38:24;100354.59;;;-6.42;94.71
60337;BME280;46978;50.288;28.624;2023-02-28T05:39:26;100356.52;;;-6.38;94.54
60337;BME280;46978;50.288;28.624;2023-02-28T05:40:27;100357.72;;;-6.33;94.64
60337;BME280;46978;50.288;28.624;2023-02-28T05:41:29;100361.31;;;-6.29;94.22
60337;BME280;46978;50.288;28.624;2023-02-28T05:42:30;100359.09;;;-6.25;94.23
60337;BME280;46978;50.288;28.624;2023-02-28T05:43:32;100359.28;;;-6.22;93.93
60337;BME280;46978;50.288;28.624;2023-02-28T05:44:35;100356.95;;;-6.19;93.80
60337;BME280;46978;50.288;28.624;2023-02-28T05:45:37;100357.25;;;-6.14;93.83
60337;BME280;46978;50.288;28.624;2023-02-28T05:46:39;100350.73;;;-6.10;93.82
60337;BME280;46978;50.288;28.624;2023-02-28T05:47:41;100350.17;;;-6.06;93.55
60337;BME280;46978;50.288;28.624;2023-02-28T05:48:46;100352.89;;;-6.03;93.41
60337;BME280;46978;50.288;28.624;2023-02-28T05:49:48;100348.80;;;-6.01;93.30
60337;BME280;46978;50.288;28.624;2023-02-28T05:50:49;100352.78;;;-5.91;93.68
60337;BME280;46978;50.288;28.624;2023-02-28T05:51:51;100352.78;;;-5.91;93.68